sensor_id;sensor_type;location;lat;lon;timestamp;pressure;altitude;pressure_sealevel;temperature;humidity
35577;BME280;21680;52.400;16.920;2023-02-07T00:02:12;103381.09;;;-3.79;83.74
35577;BME280;21680;52.400;16.920;2023-02-07T00:04:37;103377.67;;;-3.80;83.98
35577;BME280;21680;52.400;16.920;2023-02-07T00:07:02;103379.17;;;-3.84;83.76
35577;BME280;21680;52.400;16.920;2023-02-07T00:09:27;103371.95;;;-3.88;83.62
35577;BME280;21680;52.400;16.920;2023-02-07T00:11:52;103375.46;;;-3.91;83.66
35577;BME280;21680;52.400;16.920;2023-02-07T00:14:18;103373.46;;;-3.93;84.13
35577;BME280;21680;52.400;16.920;2023-02-07T00:16:43;103374.13;;;-3.93;84.07
35577;BME280;21680;52.400;16.920;2023-02-07T00:19:08;103367.02;;;-3.95;83.97
35577;BME280;21680;52.400;16.920;2023-02-07T00:21:34;103360.87;;;-3.96;83.66
35577;BME280;21680;52.400;16.920;2023-02-07T00:23:59;103356.45;;;-3.97;83.98
35577;BME280;21680;52.400;16.920;2023-02-07T00:26:25;103352.14;;;-3.99;83.98
35577;BME280;21680;52.400;16.920;2023-02-07T00:28:52;103347.41;;;-4.02;83.82
35577;BME280;21680;52.400;16.920;2023-02-07T00:31:19;103347.34;;;-4.03;84.05
35577;BME280;21680;52.400;16.920;2023-02-07T00:33:45;103347.45;;;-4.04;83.63
35577;BME280;21680;52.400;16.920;2023-02-07T00:36:13;103342.14;;;-4.05;83.81
35577;BME280;21680;52.400;16.920;2023-02-07T00:38:38;103348.98;;;-4.08;83.94
35577;BME280;21680;52.400;16.920;2023-02-07T00:41:04;103349.06;;;-4.09;83.98
35577;BME280;21680;52.400;16.920;2023-02-07T00:43:30;103347.80;;;-4.10;84.18
35577;BME280;21680;52.400;16.920;2023-02-07T00:45:59;103357.14;;;-4.11;84.22
35577;BME280;21680;52.400;16.920;2023-02-07T00:48:28;103349.11;;;-4.14;83.94
35577;BME280;21680;52.400;16.920;2023-02-07T00:50:53;103341.00;;;-4.15;83.98
35577;BME280;21680;52.400;16.920;2023-02-07T00:53:19;103341.90;;;-4.18;84.02
35577;BME280;21680;52.400;16.920;2023-02-07T00:55:44;103344.00;;;-4.20;83.94
35577;BME280;21680;52.400;16.920;2023-02-07T00:58:09;103343.98;;;-4.24;84.09
35577;BME280;21680;52.400;16.920;2023-02-07T01:00:34;103345.96;;;-4.26;84.23
35577;BME280;21680;52.400;16.920;2023-02-07T01:02:59;103342.35;;;-4.28;84.09
35577;BME280;21680;52.400;16.920;2023-02-07T01:05:24;103343.79;;;-4.30;84.28
35577;BME280;21680;52.400;16.920;2023-02-07T01:07:50;103348.17;;;-4.33;84.07
35577;BME280;21680;52.400;16.920;2023-02-07T01:10:15;103346.61;;;-4.33;84.25
35577;BME280;21680;52.400;16.920;2023-02-07T01:12:41;103351.80;;;-4.33;84.24
35577;BME280;21680;52.400;16.920;2023-02-07T01:15:06;103351.77;;;-4.34;84.08
35577;BME280;21680;52.400;16.920;2023-02-07T01:17:32;103357.09;;;-4.32;84.17
35577;BME280;21680;52.400;16.920;2023-02-07T01:19:57;103354.24;;;-4.31;84.55
35577;BME280;21680;52.400;16.920;2023-02-07T01:22:23;103349.24;;;-4.30;84.24
35577;BME280;21680;52.400;16.920;2023-02-07T01:24:49;103343.20;;;-4.28;83.99
35577;BME280;21680;52.400;16.920;2023-02-07T01:27:16;103347.23;;;-4.26;84.41
35577;BME280;21680;52.400;16.920;2023-02-07T01:29:41;103350.75;;;-4.25;84.20
35577;BME280;21680;52.400;16.920;2023-02-07T01:32:06;103350.79;;;-4.24;84.18
35577;BME280;21680;52.400;16.920;2023-02-07T01:34:31;103353.77;;;-4.24;84.31
35577;BME280;21680;52.400;16.920;2023-02-07T01:36:56;103354.73;;;-4.22;84.42
35577;BME280;21680;52.400;16.920;2023-02-07T01:39:22;103357.36;;;-4.19;84.55
35577;BME280;21680;52.400;16.920;2023-02-07T01:41:47;103354.33;;;-4.17;84.34
35577;BME280;21680;52.400;16.920;2023-02-07T01:44:57;103353.90;;;-4.16;84.74
35577;BME280;21680;52.400;16.920;2023-02-07T01:47:03;103345.11;;;-4.14;84.50
35577;BME280;21680;52.400;16.920;2023-02-07T01:49:29;103343.59;;;-4.13;84.47
35577;BME280;21680;52.400;16.920;2023-02-07T01:51:57;103342.94;;;-4.12;84.51
35577;BME280;21680;52.400;16.920;2023-02-07T01:54:24;103344.48;;;-4.13;84.29
35577;BME280;21680;52.400;16.920;2023-02-07T01:56:56;103345.00;;;-4.13;84.46
35577;BME280;21680;52.400;16.920;2023-02-07T01:59:23;103345.34;;;-4.13;84.53
35577;BME280;21680;52.400;16.920;2023-02-07T02:01:49;103345.43;;;-4.14;84.66
35577;BME280;21680;52.400;16.920;2023-02-07T02:04:15;103339.48;;;-4.17;84.49
35577;BME280;21680;52.400;16.920;2023-02-07T02:06:40;103337.48;;;-4.19;84.45
35577;BME280;21680;52.400;16.920;2023-02-07T02:09:11;103335.33;;;-4.19;84.47
35577;BME280;21680;52.400;16.920;2023-02-07T02:11:47;103345.70;;;-4.19;84.69
35577;BME280;21680;52.400;16.920;2023-02-07T02:14:24;103345.05;;;-4.18;84.62
35577;BME280;21680;52.400;16.920;2023-02-07T02:19:29;103347.58;;;-4.16;84.76
35577;BME280;21680;52.400;16.920;2023-02-07T02:34:51;103343.33;;;-4.20;84.65
35577;BME280;21680;52.400;16.920;2023-02-07T02:37:29;103341.27;;;-4.22;84.75
35577;BME280;21680;52.400;16.920;2023-02-07T02:40:03;103341.99;;;-4.25;84.79
35577;BME280;21680;52.400;16.920;2023-02-07T02:42:32;103344.67;;;-4.27;84.59
35577;BME280;21680;52.400;16.920;2023-02-07T02:44:59;103344.50;;;-4.30;84.90
35577;BME280;21680;52.400;16.920;2023-02-07T02:47:26;103346.66;;;-4.32;84.44
35577;BME280;21680;52.400;16.920;2023-02-07T02:49:53;103352.29;;;-4.34;84.81
35577;BME280;21680;52.400;16.920;2023-02-07T02:52:18;103349.55;;;-4.36;84.75
35577;BME280;21680;52.400;16.920;2023-02-07T02:54:43;103346.90;;;-4.39;84.57
35577;BME280;21680;52.400;16.920;2023-02-07T03:02:37;103331.20;;;-4.48;84.60
35577;BME280;21680;52.400;16.920;2023-02-07T03:10:03;103343.84;;;-4.52;84.66
35577;BME280;21680;52.400;16.920;2023-02-07T03:17:27;103333.64;;;-4.59;84.98
35577;BME280;21680;52.400;16.920;2023-02-07T03:22:21;103334.08;;;-4.64;84.81
35577;BME280;21680;52.400;16.920;2023-02-07T03:24:52;103337.23;;;-4.66;84.84
35577;BME280;21680;52.400;16.920;2023-02-07T03:27:19;103337.46;;;-4.65;84.74
35577;BME280;21680;52.400;16.920;2023-02-07T03:29:47;103336.27;;;-4.65;84.91
35577;BME280;21680;52.400;16.920;2023-02-07T03:32:13;103333.66;;;-4.62;84.88
35577;BME280;21680;52.400;16.920;2023-02-07T03:37:41;103328.82;;;-4.61;85.04
35577;BME280;21680;52.400;16.920;2023-02-07T03:40:08;103321.02;;;-4.60;85.03
35577;BME280;21680;52.400;16.920;2023-02-07T03:42:36;103319.54;;;-4.56;85.27
35577;BME280;21680;52.400;16.920;2023-02-07T03:45:03;103321.85;;;-4.55;85.07
35577;BME280;21680;52.400;16.920;2023-02-07T03:47:29;103327.65;;;-4.54;85.24
35577;BME280;21680;52.400;16.920;2023-02-07T03:49:55;103321.16;;;-4.55;85.15
35577;BME280;21680;52.400;16.920;2023-02-07T03:52:20;103320.53;;;-4.54;85.29
35577;BME280;21680;52.400;16.920;2023-02-07T03:54:45;103321.23;;;-4.54;85.29
35577;BME280;21680;52.400;16.920;2023-02-07T03:57:10;103325.48;;;-4.52;85.21
35577;BME280;21680;52.400;16.920;2023-02-07T03:59:36;103327.91;;;-4.53;85.29
35577;BME280;21680;52.400;16.920;2023-02-07T04:02:01;103336.35;;;-4.52;84.97
35577;BME280;21680;52.400;16.920;2023-02-07T04:04:26;103335.79;;;-4.52;85.45
35577;BME280;21680;52.400;16.920;2023-02-07T04:06:52;103330.40;;;-4.55;85.26
35577;BME280;21680;52.400;16.920;2023-02-07T04:09:17;103322.69;;;-4.59;85.15
35577;BME280;21680;52.400;16.920;2023-02-07T04:11:42;103323.46;;;-4.60;85.21
35577;BME280;21680;52.400;16.920;2023-02-07T04:14:07;103324.27;;;-4.61;84.99
35577;BME280;21680;52.400;16.920;2023-02-07T04:16:32;103326.05;;;-4.61;84.99
35577;BME280;21680;52.400;16.920;2023-02-07T04:18:58;103326.62;;;-4.60;85.20
35577;BME280;21680;52.400;16.920;2023-02-07T04:21:23;103328.61;;;-4.59;85.17
35577;BME280;21680;52.400;16.920;2023-02-07T04:23:49;103322.23;;;-4.58;85.42
35577;BME280;21680;52.400;16.920;2023-02-07T04:26:14;103316.39;;;-4.56;85.27
35577;BME280;21680;52.400;16.920;2023-02-07T04:28:39;103313.77;;;-4.53;85.27
35577;BME280;21680;52.400;16.920;2023-02-07T04:31:04;103317.86;;;-4.52;85.46
35577;BME280;21680;52.400;16.920;2023-02-07T04:33:30;103311.80;;;-4.48;85.24
35577;BME280;21680;52.400;16.920;2023-02-07T04:36:00;103312.52;;;-4.45;85.31
35577;BME280;21680;52.400;16.920;2023-02-07T04:38:26;103315.42;;;-4.43;85.46
35577;BME280;21680;52.400;16.920;2023-02-07T04:40:51;103316.77;;;-4.41;85.17
35577;BME280;21680;52.400;16.920;2023-02-07T04:43:17;103313.20;;;-4.39;85.29
35577;BME280;21680;52.400;16.920;2023-02-07T04:45:42;103314.47;;;-4.36;85.41
35577;BME280;21680;52.400;16.920;2023-02-07T04:48:09;103305.34;;;-4.34;85.53
35577;BME280;21680;52.400;16.920;2023-02-07T04:50:34;103304.32;;;-4.31;85.41
35577;BME280;21680;52.400;16.920;2023-02-07T04:53:00;103302.91;;;-4.28;85.38
35577;BME280;21680;52.400;16.920;2023-02-07T04:55:25;103305.38;;;-4.24;85.48
35577;BME280;21680;52.400;16.920;2023-02-07T04:57:50;103300.96;;;-4.22;85.31
35577;BME280;21680;52.400;16.920;2023-02-07T05:00:15;103305.77;;;-4.21;85.49
35577;BME280;21680;52.400;16.920;2023-02-07T05:02:42;103304.45;;;-4.19;85.60
35577;BME280;21680;52.400;16.920;2023-02-07T05:05:08;103307.48;;;-4.18;85.36
35577;BME280;21680;52.400;16.920;2023-02-07T05:07:33;103310.29;;;-4.15;85.64
35577;BME280;21680;52.400;16.920;2023-02-07T05:09:59;103309.55;;;-4.13;85.46
35577;BME280;21680;52.400;16.920;2023-02-07T05:12:24;103309.27;;;-4.12;85.67
35577;BME280;21680;52.400;16.920;2023-02-07T05:14:49;103308.38;;;-4.09;85.58
35577;BME280;21680;52.400;16.920;2023-02-07T05:17:14;103305.64;;;-4.05;85.74
35577;BME280;21680;52.400;16.920;2023-02-07T05:19:39;103305.42;;;-4.03;85.83
35577;BME280;21680;52.400;16.920;2023-02-07T05:22:05;103311.44;;;-3.99;85.83
35577;BME280;21680;52.400;16.920;2023-02-07T05:24:30;103314.77;;;-3.96;85.91
35577;BME280;21680;52.400;16.920;2023-02-07T05:26:55;103316.95;;;-3.91;85.57
35577;BME280;21680;52.400;16.920;2023-02-07T05:29:20;103314.12;;;-3.89;85.61
35577;BME280;21680;52.400;16.920;2023-02-07T05:31:45;103311.81;;;-3.86;85.80
35577;BME280;21680;52.400;16.920;2023-02-07T05:34:29;103312.93;;;-3.82;86.13
35577;BME280;21680;52.400;16.920;2023-02-07T05:36:55;103317.04;;;-3.78;85.83
35577;BME280;21680;52.400;16.920;2023-02-07T05:39:20;103320.75;;;-3.71;86.06
35577;BME280;21680;52.400;16.920;2023-02-07T05:41:45;103320.60;;;-3.68;85.90
35577;BME280;21680;52.400;16.920;2023-02-07T05:44:11;103320.39;;;-3.65;85.71
35577;BME280;21680;52.400;16.920;2023-02-07T05:46:36;103329.42;;;-3.63;85.92
35577;BME280;21680;52.400;16.920;2023-02-07T05:49:02;103334.73;;;-3.62;85.77
35577;BME280;21680;52.400;16.920;2023-02-07T05:51:27;103334.50;;;-3.60;85.71
35577;BME280;21680;52.400;16.920;2023-02-07T05:53:52;103334.77;;;-3.58;85.75
35577;BME280;21680;52.400;16.920;2023-02-07T05:56:18;103332.48;;;-3.55;86.02
35577;BME280;21680;52.400;16.920;2023-02-07T05:58:43;103335.91;;;-3.53;85.77
35577;BME280;21680;52.400;16.920;2023-02-07T06:01:08;103340.15;;;-3.52;85.96
35577;BME280;21680;52.400;16.920;2023-02-07T06:03:33;103342.30;;;-3.48;86.03
35577;BME280;21680;52.400;16.920;2023-02-07T06:05:59;103333.59;;;-3.45;86.10
35577;BME280;21680;52.400;16.920;2023-02-07T06:08:24;103334.08;;;-3.43;86.04
35577;BME280;21680;52.400;16.920;2023-02-07T06:10:49;103331.10;;;-3.43;85.79
35577;BME280;21680;52.400;16.920;2023-02-07T06:13:14;103327.16;;;-3.41;85.99
35577;BME280;21680;52.400;16.920;2023-02-07T06:15:39;103323.30;;;-3.38;85.89
35577;BME280;21680;52.400;16.920;2023-02-07T06:18:05;103329.73;;;-3.36;85.91
35577;BME280;21680;52.400;16.920;2023-02-07T06:20:30;103331.45;;;-3.34;86.02
35577;BME280;21680;52.400;16.920;2023-02-07T06:22:55;103330.25;;;-3.30;85.92
35577;BME280;21680;52.400;16.920;2023-02-07T06:25:20;103327.12;;;-3.27;86.01
35577;BME280;21680;52.400;16.920;2023-02-07T06:27:46;103331.24;;;-3.21;85.72
35577;BME280;21680;52.400;16.920;2023-02-07T06:30:11;103333.84;;;-3.19;85.85
35577;BME280;21680;52.400;16.920;2023-02-07T06:32:37;103337.07;;;-3.15;86.08
35577;BME280;21680;52.400;16.920;2023-02-07T06:35:03;103339.01;;;-3.11;86.10
35577;BME280;21680;52.400;16.920;2023-02-07T06:37:28;103337.47;;;-3.07;85.84
35577;BME280;21680;52.400;16.920;2023-02-07T06:39:53;103336.95;;;-3.04;85.96
35577;BME280;21680;52.400;16.920;2023-02-07T06:42:19;103338.17;;;-3.01;86.04
35577;BME280;21680;52.400;16.920;2023-02-07T06:44:45;103336.52;;;-2.99;85.95
35577;BME280;21680;52.400;16.920;2023-02-07T06:47:10;103338.60;;;-2.97;85.91
35577;BME280;21680;52.400;16.920;2023-02-07T06:49:35;103343.65;;;-2.93;86.29
35577;BME280;21680;52.400;16.920;2023-02-07T06:52:00;103342.38;;;-2.91;86.07
35577;BME280;21680;52.400;16.920;2023-02-07T06:54:26;103351.42;;;-2.89;85.98
35577;BME280;21680;52.400;16.920;2023-02-07T06:56:51;103355.36;;;-2.87;86.09
35577;BME280;21680;52.400;16.920;2023-02-07T06:59:16;103356.97;;;-2.83;85.97
35577;BME280;21680;52.400;16.920;2023-02-07T07:01:41;103356.68;;;-2.79;85.90
35577;BME280;21680;52.400;16.920;2023-02-07T07:04:06;103353.75;;;-2.75;85.94
35577;BME280;21680;52.400;16.920;2023-02-07T07:06:32;103353.14;;;-2.74;85.85
35577;BME280;21680;52.400;16.920;2023-02-07T07:08:57;103352.36;;;-2.72;85.88
35577;BME280;21680;52.400;16.920;2023-02-07T07:11:22;103344.84;;;-2.72;85.73
35577;BME280;21680;52.400;16.920;2023-02-07T07:13:48;103337.90;;;-2.71;86.04
35577;BME280;21680;52.400;16.920;2023-02-07T07:16:13;103335.18;;;-2.69;85.81
35577;BME280;21680;52.400;16.920;2023-02-07T07:18:39;103329.91;;;-2.67;86.24
35577;BME280;21680;52.400;16.920;2023-02-07T07:21:05;103324.45;;;-2.64;86.00
35577;BME280;21680;52.400;16.920;2023-02-07T07:23:31;103314.08;;;-2.65;86.04
35577;BME280;21680;52.400;16.920;2023-02-07T07:25:56;103307.39;;;-2.62;86.17
35577;BME280;21680;52.400;16.920;2023-02-07T07:28:21;103310.06;;;-2.57;85.99
35577;BME280;21680;52.400;16.920;2023-02-07T07:30:46;103310.84;;;-2.56;86.08
35577;BME280;21680;52.400;16.920;2023-02-07T07:33:12;103316.73;;;-2.53;85.90
35577;BME280;21680;52.400;16.920;2023-02-07T07:35:37;103319.45;;;-2.52;85.93
35577;BME280;21680;52.400;16.920;2023-02-07T07:38:02;103314.20;;;-2.48;86.08
35577;BME280;21680;52.400;16.920;2023-02-07T07:40:27;103316.00;;;-2.44;86.09
35577;BME280;21680;52.400;16.920;2023-02-07T07:42:52;103317.20;;;-2.41;86.13
35577;BME280;21680;52.400;16.920;2023-02-07T07:45:18;103321.59;;;-2.38;86.17
35577;BME280;21680;52.400;16.920;2023-02-07T07:47:44;103329.98;;;-2.35;86.08
35577;BME280;21680;52.400;16.920;2023-02-07T07:50:09;103333.27;;;-2.33;86.19
35577;BME280;21680;52.400;16.920;2023-02-07T07:52:34;103332.84;;;-2.27;86.39
35577;BME280;21680;52.400;16.920;2023-02-07T07:55:00;103328.23;;;-2.24;86.19
35577;BME280;21680;52.400;16.920;2023-02-07T07:57:25;103323.93;;;-2.19;86.25
35577;BME280;21680;52.400;16.920;2023-02-07T07:59:52;103325.34;;;-2.16;86.34
35577;BME280;21680;52.400;16.920;2023-02-07T08:02:18;103323.98;;;-2.12;86.27
35577;BME280;21680;52.400;16.920;2023-02-07T08:04:43;103329.48;;;-2.11;86.22
35577;BME280;21680;52.400;16.920;2023-02-07T08:07:08;103331.16;;;-2.09;86.24
35577;BME280;21680;52.400;16.920;2023-02-07T08:09:33;103335.05;;;-2.05;86.47
35577;BME280;21680;52.400;16.920;2023-02-07T08:11:58;103338.29;;;-2.00;86.27
35577;BME280;21680;52.400;16.920;2023-02-07T08:14:23;103334.00;;;-1.98;86.40
35577;BME280;21680;52.400;16.920;2023-02-07T08:16:49;103338.09;;;-1.97;86.16
35577;BME280;21680;52.400;16.920;2023-02-07T08:19:14;103339.54;;;-1.92;86.30
35577;BME280;21680;52.400;16.920;2023-02-07T08:21:39;103342.64;;;-1.86;86.05
35577;BME280;21680;52.400;16.920;2023-02-07T08:24:04;103343.65;;;-1.80;86.45
35577;BME280;21680;52.400;16.920;2023-02-07T08:26:29;103346.59;;;-1.74;86.30
35577;BME280;21680;52.400;16.920;2023-02-07T08:28:55;103347.35;;;-1.73;86.28
35577;BME280;21680;52.400;16.920;2023-02-07T08:31:20;103348.06;;;-1.73;86.20
35577;BME280;21680;52.400;16.920;2023-02-07T08:33:45;103348.59;;;-1.73;86.31
35577;BME280;21680;52.400;16.920;2023-02-07T08:36:11;103351.77;;;-1.72;86.15
35577;BME280;21680;52.400;16.920;2023-02-07T08:38:36;103355.20;;;-1.70;85.95
35577;BME280;21680;52.400;16.920;2023-02-07T08:41:02;103361.55;;;-1.66;86.30
35577;BME280;21680;52.400;16.920;2023-02-07T08:43:28;103369.06;;;-1.63;86.13
35577;BME280;21680;52.400;16.920;2023-02-07T08:45:53;103365.17;;;-1.60;86.50
35577;BME280;21680;52.400;16.920;2023-02-07T08:48:18;103368.31;;;-1.57;86.43
35577;BME280;21680;52.400;16.920;2023-02-07T08:50:43;103365.79;;;-1.54;86.13
35577;BME280;21680;52.400;16.920;2023-02-07T08:53:09;103365.20;;;-1.52;86.13
35577;BME280;21680;52.400;16.920;2023-02-07T08:55:34;103366.55;;;-1.50;86.38
35577;BME280;21680;52.400;16.920;2023-02-07T08:58:00;103363.17;;;-1.48;86.30
35577;BME280;21680;52.400;16.920;2023-02-07T09:00:25;103362.05;;;-1.45;86.44
35577;BME280;21680;52.400;16.920;2023-02-07T09:02:50;103358.52;;;-1.42;86.36
35577;BME280;21680;52.400;16.920;2023-02-07T09:05:15;103364.08;;;-1.40;86.31
35577;BME280;21680;52.400;16.920;2023-02-07T09:07:40;103361.59;;;-1.37;86.41
35577;BME280;21680;52.400;16.920;2023-02-07T09:10:06;103362.88;;;-1.32;86.51
35577;BME280;21680;52.400;16.920;2023-02-07T09:12:32;103366.28;;;-1.30;86.38
35577;BME280;21680;52.400;16.920;2023-02-07T09:14:58;103370.23;;;-1.32;86.34
35577;BME280;21680;52.400;16.920;2023-02-07T09:17:23;103374.32;;;-1.35;86.31
35577;BME280;21680;52.400;16.920;2023-02-07T09:19:48;103380.70;;;-1.34;86.54
35577;BME280;21680;52.400;16.920;2023-02-07T09:22:13;103384.10;;;-1.32;86.39
35577;BME280;21680;52.400;16.920;2023-02-07T09:24:39;103388.17;;;-1.28;86.62
35577;BME280;21680;52.400;16.920;2023-02-07T09:27:04;103390.48;;;-1.24;86.58
35577;BME280;21680;52.400;16.920;2023-02-07T09:29:29;103391.21;;;-1.19;86.50
35577;BME280;21680;52.400;16.920;2023-02-07T09:31:54;103391.24;;;-1.15;86.65
35577;BME280;21680;52.400;16.920;2023-02-07T09:34:20;103386.82;;;-1.13;86.50
35577;BME280;21680;52.400;16.920;2023-02-07T09:36:45;103389.49;;;-1.11;86.48
35577;BME280;21680;52.400;16.920;2023-02-07T09:39:10;103394.21;;;-1.12;86.45
35577;BME280;21680;52.400;16.920;2023-02-07T09:47:06;103400.34;;;-1.05;86.70
35577;BME280;21680;52.400;16.920;2023-02-07T09:49:35;103397.58;;;-1.04;86.58
35577;BME280;21680;52.400;16.920;2023-02-07T09:52:03;103399.82;;;-1.01;86.63
35577;BME280;21680;52.400;16.920;2023-02-07T09:54:34;103397.14;;;-0.99;86.55
35577;BME280;21680;52.400;16.920;2023-02-07T09:57:03;103396.84;;;-1.01;86.53
35577;BME280;21680;52.400;16.920;2023-02-07T09:59:33;103398.64;;;-1.04;86.43
35577;BME280;21680;52.400;16.920;2023-02-07T10:02:03;103400.98;;;-1.03;86.57
35577;BME280;21680;52.400;16.920;2023-02-07T10:04:34;103401.37;;;-1.02;86.60
35577;BME280;21680;52.400;16.920;2023-02-07T10:07:02;103397.50;;;-0.98;86.41
35577;BME280;21680;52.400;16.920;2023-02-07T10:09:31;103400.95;;;-0.96;86.60
35577;BME280;21680;52.400;16.920;2023-02-07T10:12:06;103397.50;;;-1.02;86.35
35577;BME280;21680;52.400;16.920;2023-02-07T10:22:43;103394.60;;;-1.15;86.35
35577;BME280;21680;52.400;16.920;2023-02-07T10:32:35;103390.58;;;-1.07;86.33
35577;BME280;21680;52.400;16.920;2023-02-07T10:35:06;103389.29;;;-1.01;86.65
35577;BME280;21680;52.400;16.920;2023-02-07T10:37:38;103386.64;;;-0.98;86.42
35577;BME280;21680;52.400;16.920;2023-02-07T10:42:32;103378.85;;;-0.88;86.36
35577;BME280;21680;52.400;16.920;2023-02-07T10:44:58;103381.81;;;-0.89;86.33
35577;BME280;21680;52.400;16.920;2023-02-07T10:47:23;103383.30;;;-0.94;86.45
35577;BME280;21680;52.400;16.920;2023-02-07T10:49:50;103383.59;;;-0.95;86.39
35577;BME280;21680;52.400;16.920;2023-02-07T10:52:26;103378.35;;;-0.88;86.52
35577;BME280;21680;52.400;16.920;2023-02-07T10:54:57;103376.13;;;-0.83;86.43
35577;BME280;21680;52.400;16.920;2023-02-07T10:57:22;103364.60;;;-0.78;86.47
35577;BME280;21680;52.400;16.920;2023-02-07T10:59:48;103363.98;;;-0.72;86.58
35577;BME280;21680;52.400;16.920;2023-02-07T11:04:52;103355.20;;;-0.65;86.29
35577;BME280;21680;52.400;16.920;2023-02-07T11:07:17;103351.74;;;-0.71;86.33
35577;BME280;21680;52.400;16.920;2023-02-07T11:09:45;103342.48;;;-0.70;86.34
35577;BME280;21680;52.400;16.920;2023-02-07T11:12:14;103343.31;;;-0.67;86.51
35577;BME280;21680;52.400;16.920;2023-02-07T11:14:40;103338.54;;;-0.64;86.52
35577;BME280;21680;52.400;16.920;2023-02-07T11:17:22;103345.65;;;-0.54;86.58
35577;BME280;21680;52.400;16.920;2023-02-07T11:19:47;103338.80;;;-0.47;86.56
35577;BME280;21680;52.400;16.920;2023-02-07T11:22:22;103331.38;;;-0.40;86.50
35577;BME280;21680;52.400;16.920;2023-02-07T11:24:50;103324.08;;;-0.38;86.63
35577;BME280;21680;52.400;16.920;2023-02-07T11:27:20;103318.68;;;-0.33;86.45
35577;BME280;21680;52.400;16.920;2023-02-07T11:29:55;103316.60;;;-0.33;86.31
35577;BME280;21680;52.400;16.920;2023-02-07T11:32:22;103317.63;;;-0.37;86.26
35577;BME280;21680;52.400;16.920;2023-02-07T11:34:53;103322.93;;;-0.37;86.38
35577;BME280;21680;52.400;16.920;2023-02-07T11:39:50;103320.29;;;-0.37;86.39
35577;BME280;21680;52.400;16.920;2023-02-07T11:42:18;103316.97;;;-0.40;86.30
35577;BME280;21680;52.400;16.920;2023-02-07T11:44:44;103311.30;;;-0.37;86.38
35577;BME280;21680;52.400;16.920;2023-02-07T11:47:14;103310.06;;;-0.29;86.43
35577;BME280;21680;52.400;16.920;2023-02-07T11:52:06;103309.06;;;-0.20;86.20
35577;BME280;21680;52.400;16.920;2023-02-07T11:54:32;103304.52;;;-0.23;86.17
35577;BME280;21680;52.400;16.920;2023-02-07T11:57:09;103307.11;;;-0.24;86.13
35577;BME280;21680;52.400;16.920;2023-02-07T11:59:42;103305.41;;;-0.23;86.26
35577;BME280;21680;52.400;16.920;2023-02-07T12:02:17;103300.48;;;-0.19;86.34
35577;BME280;21680;52.400;16.920;2023-02-07T12:04:43;103296.02;;;-0.13;86.18
35577;BME280;21680;52.400;16.920;2023-02-07T12:07:13;103291.58;;;-0.10;86.33
35577;BME280;21680;52.400;16.920;2023-02-07T12:09:44;103292.46;;;-0.14;85.95
35577;BME280;21680;52.400;16.920;2023-02-07T12:12:54;103292.91;;;-0.16;85.84
35577;BME280;21680;52.400;16.920;2023-02-07T12:15:00;103294.98;;;-0.13;86.07
35577;BME280;21680;52.400;16.920;2023-02-07T12:17:35;103299.04;;;-0.12;86.09
35577;BME280;21680;52.400;16.920;2023-02-07T12:20:05;103296.70;;;-0.09;85.93
35577;BME280;21680;52.400;16.920;2023-02-07T12:22:34;103294.69;;;-0.11;85.92
35577;BME280;21680;52.400;16.920;2023-02-07T12:25:04;103289.11;;;-0.06;85.84
35577;BME280;21680;52.400;16.920;2023-02-07T12:27:39;103295.30;;;-0.01;85.88
35577;BME280;21680;52.400;16.920;2023-02-07T12:37:50;103289.04;;;-0.03;85.62
35577;BME280;21680;52.400;16.920;2023-02-07T12:40:18;103294.20;;;-0.14;85.38
35577;BME280;21680;52.400;16.920;2023-02-07T12:42:46;103295.66;;;-0.21;85.38
35577;BME280;21680;52.400;16.920;2023-02-07T12:45:15;103295.69;;;-0.20;85.30
35577;BME280;21680;52.400;16.920;2023-02-07T12:50:12;103301.48;;;-0.17;85.20
35577;BME280;21680;52.400;16.920;2023-02-07T12:58:05;103297.45;;;-0.16;85.16
35577;BME280;21680;52.400;16.920;2023-02-07T13:00:59;103292.44;;;-0.18;84.90
35577;BME280;21680;52.400;16.920;2023-02-07T13:03:32;103298.77;;;-0.18;85.02
35577;BME280;21680;52.400;16.920;2023-02-07T13:11:10;103287.47;;;-0.03;84.69
35577;BME280;21680;52.400;16.920;2023-02-07T13:13:59;103286.44;;;-0.03;84.73
35577;BME280;21680;52.400;16.920;2023-02-07T13:19:14;103294.14;;;0.01;84.72
35577;BME280;21680;52.400;16.920;2023-02-07T13:21:53;103285.46;;;0.04;84.64
35577;BME280;21680;52.400;16.920;2023-02-07T13:24:22;103278.98;;;-0.04;84.34
35577;BME280;21680;52.400;16.920;2023-02-07T13:26:50;103275.09;;;-0.05;84.14
35577;BME280;21680;52.400;16.920;2023-02-07T13:29:17;103275.09;;;-0.05;84.44
35577;BME280;21680;52.400;16.920;2023-02-07T13:34:20;103272.52;;;-0.08;84.42
35577;BME280;21680;52.400;16.920;2023-02-07T13:36:51;103282.13;;;-0.09;84.47
35577;BME280;21680;52.400;16.920;2023-02-07T13:45:10;103272.14;;;-0.17;84.28
35577;BME280;21680;52.400;16.920;2023-02-07T13:57:46;103270.69;;;-0.18;83.98
35577;BME280;21680;52.400;16.920;2023-02-07T14:00:32;103263.82;;;-0.18;83.86
35577;BME280;21680;52.400;16.920;2023-02-07T14:03:04;103264.63;;;-0.24;83.75
35577;BME280;21680;52.400;16.920;2023-02-07T14:05:31;103265.86;;;-0.23;83.65
35577;BME280;21680;52.400;16.920;2023-02-07T14:08:05;103254.53;;;-0.17;83.71
35577;BME280;21680;52.400;16.920;2023-02-07T14:10:33;103254.20;;;-0.13;83.42
35577;BME280;21680;52.400;16.920;2023-02-07T14:13:00;103257.94;;;-0.12;83.60
35577;BME280;21680;52.400;16.920;2023-02-07T14:18:02;103253.83;;;-0.09;83.64
35577;BME280;21680;52.400;16.920;2023-02-07T14:25:40;103253.10;;;-0.10;83.48
35577;BME280;21680;52.400;16.920;2023-02-07T14:28:08;103256.92;;;-0.11;83.53
35577;BME280;21680;52.400;16.920;2023-02-07T14:35:43;103251.80;;;-0.11;83.21
35577;BME280;21680;52.400;16.920;2023-02-07T14:38:18;103257.52;;;-0.13;83.20
35577;BME280;21680;52.400;16.920;2023-02-07T14:45:35;103256.34;;;-0.12;83.13
35577;BME280;21680;52.400;16.920;2023-02-07T14:48:02;103252.16;;;-0.11;83.09